Time;durP1;ratioP1;P1;durP2;ratioP2;P2;SDS_P1;SDS_P2;PMS_P1;PMS_P2;Temp;Humidity;BMP_temperature;BMP_pressure;BME280_temperature;BME280_humidity;BME280_pressure;Samples;Min_cycle;Max_cycle;Signal;HPM_P1;HPM_P2
2022/09/28 00:02:11;;;;;;;7.93;4.90;;;;;;;14.11;55.98;98194.38;5057965;28;20050;-68
2022/09/28 00:04:37;;;;;;;5.25;4.75;;;;;;;14.12;55.59;98185.31;5074649;28;20640;-69
2022/09/28 00:07:02;;;;;;;6.60;4.85;;;;;;;14.15;56.42;98192.06;5091396;28;20040;-68
2022/09/28 00:09:28;;;;;;;7.50;4.72;;;;;;;14.13;55.73;98188.81;5075169;28;20128;-68
2022/09/28 00:11:56;;;;;;;7.30;4.97;;;;;;;14.08;56.03;98185.97;5074653;28;20637;-68
2022/09/28 00:14:22;;;;;;;5.72;4.53;;;;;;;14.20;56.02;98189.56;5094766;28;20052;-69
2022/09/28 00:16:48;;;;;;;8.80;4.72;;;;;;;14.11;55.98;98189.03;5062245;28;20055;-68
2022/09/28 00:19:14;;;;;;;6.80;4.57;;;;;;;14.10;56.10;98183.91;5096370;28;20044;-68
2022/09/28 00:21:40;;;;;;;4.80;4.25;;;;;;;14.25;55.83;98182.59;5082052;28;20054;-68
2022/09/28 00:24:17;;;;;;;8.27;4.78;;;;;;;14.23;55.95;98170.44;5082072;28;20160;-68
2022/09/28 00:26:52;;;;;;;4.95;4.35;;;;;;;14.21;56.21;98161.84;5082433;28;20225;-68
2022/09/28 00:29:32;;;;;;;8.88;4.32;;;;;;;14.22;55.86;98163.50;5099390;28;20488;-68
2022/09/28 00:32:01;;;;;;;8.80;4.68;;;;;;;14.13;56.28;98176.25;5081783;28;20408;-68
2022/09/28 00:34:31;;;;;;;7.88;4.85;;;;;;;13.97;56.23;98136.75;5081956;28;20447;-68
2022/09/28 00:36:58;;;;;;;6.37;5.07;;;;;;;14.02;56.39;98152.13;5081427;28;20040;-68
2022/09/28 00:39:24;;;;;;;6.75;4.72;;;;;;;14.00;56.66;98167.53;5081232;28;20108;-68
2022/09/28 00:41:50;;;;;;;5.65;4.43;;;;;;;14.04;56.41;98153.53;5080862;28;20036;-68
2022/09/28 00:44:24;;;;;;;4.88;4.38;;;;;;;14.36;56.15;98162.38;5080236;28;20142;-68
2022/09/28 00:47:30;;;;;;;6.03;4.57;;;;;;;14.33;56.17;98152.94;5097347;28;20039;-68
2022/09/28 00:50:04;;;;;;;5.55;4.00;;;;;;;14.03;56.42;98156.41;5043066;28;20043;-68
2022/09/28 00:52:43;;;;;;;6.70;4.20;;;;;;;14.14;56.29;98153.06;5097607;28;20461;-68
2022/09/28 00:55:12;;;;;;;4.55;3.90;;;;;;;14.18;56.40;98138.25;5064680;28;20443;-69
2022/09/28 00:57:39;;;;;;;6.78;4.03;;;;;;;14.20;56.55;98139.69;5098875;28;20040;-69
2022/09/28 01:00:06;;;;;;;4.47;3.38;;;;;;;14.11;56.00;98143.66;5065087;28;20171;-68
2022/09/28 01:02:31;;;;;;;7.13;4.07;;;;;;;14.01;56.30;98137.94;5098262;28;20055;-68
2022/09/28 01:04:58;;;;;;;5.35;3.60;;;;;;;13.95;56.15;98108.63;5081389;28;20115;-68
2022/09/28 01:07:24;;;;;;;5.18;3.70;;;;;;;14.02;56.12;98130.78;5081014;28;20051;-72
2022/09/28 01:09:51;;;;;;;4.43;3.72;;;;;;;14.13;56.27;98133.56;5081394;28;20035;-66
2022/09/28 01:12:16;;;;;;;4.75;3.80;;;;;;;14.00;56.51;98119.47;5080765;28;20039;-68
2022/09/28 01:14:42;;;;;;;4.05;3.15;;;;;;;13.84;56.54;98094.13;5063962;28;20051;-67
2022/09/28 01:17:17;;;;;;;6.78;3.67;;;;;;;14.23;56.05;98122.41;5080719;28;20365;-67
2022/09/28 01:20:10;;;;;;;4.40;3.28;;;;;;;13.98;56.38;98113.53;5065403;28;20132;-67
2022/09/28 01:22:42;;;;;;;4.80;3.40;;;;;;;14.24;56.25;98108.84;5097695;28;20046;-67
2022/09/28 01:25:24;;;;;;;3.92;3.35;;;;;;;14.17;56.36;98104.56;5097206;28;20071;-67
2022/09/28 01:27:58;;;;;;;5.45;3.58;;;;;;;14.27;56.27;98111.09;5097775;28;20047;-67
2022/09/28 01:30:24;;;;;;;3.65;3.00;;;;;;;13.87;56.62;98095.56;5080707;28;20082;-73
2022/09/28 01:33:11;;;;;;;5.07;3.50;;;;;;;14.25;56.41;98097.16;5080791;28;20075;-67
2022/09/28 01:35:53;;;;;;;4.28;3.22;;;;;;;14.09;56.43;98072.81;5063623;28;20047;-70
2022/09/28 01:38:24;;;;;;;5.25;3.40;;;;;;;13.90;56.67;98087.13;5079753;28;20044;-68
2022/09/28 01:40:51;;;;;;;4.18;3.28;;;;;;;13.92;56.29;98055.69;5063416;28;20051;-67
2022/09/28 01:43:23;;;;;;;5.93;3.13;;;;;;;14.17;56.44;98084.03;5064279;28;20047;-68
2022/09/28 01:46:13;;;;;;;4.20;3.50;;;;;;;14.30;56.03;98083.16;5031244;28;20465;-68
2022/09/28 01:48:42;;;;;;;5.63;2.88;;;;;;;14.13;56.10;98090.03;5080239;28;20501;-69
2022/09/28 01:51:15;;;;;;;10.07;3.25;;;;;;;14.09;56.35;98062.13;5097185;28;20138;-68
2022/09/28 01:53:46;;;;;;;3.30;2.72;;;;;;;14.11;56.15;98070.75;5080364;28;20040;-68
2022/09/28 01:56:28;;;;;;;4.78;3.20;;;;;;;14.20;55.87;98062.25;5080933;28;20130;-68
2022/09/28 01:59:02;;;;;;;5.22;3.15;;;;;;;14.23;55.94;98077.00;5080931;28;20276;-68
2022/09/28 02:01:38;;;;;;;3.38;3.08;;;;;;;14.23;55.93;98079.66;5063632;28;20036;-68
2022/09/28 02:04:15;;;;;;;3.10;2.72;;;;;;;14.20;55.92;98064.91;5062947;28;20096;-68
2022/09/28 02:06:50;;;;;;;3.33;2.95;;;;;;;14.17;56.18;98075.19;5080868;28;20040;-68
2022/09/28 02:09:30;;;;;;;3.08;2.63;;;;;;;14.07;55.99;98029.50;5097070;28;20044;-68
2022/09/28 02:11:59;;;;;;;4.10;2.97;;;;;;;14.28;55.66;98061.19;5080001;28;20039;-68
2022/09/28 02:14:27;;;;;;;3.33;2.55;;;;;;;14.18;55.75;98031.44;5080815;28;20119;-67
2022/09/28 02:16:54;;;;;;;6.28;4.10;;;;;;;14.10;55.60;98037.09;5063761;28;20165;-68
2022/09/28 02:19:27;;;;;;;2.70;2.30;;;;;;;14.23;55.76;98036.94;5097651;28;20486;-68
2022/09/28 02:22:22;;;;;;;3.42;2.70;;;;;;;14.24;55.37;98039.44;5097410;28;20050;-68
2022/09/28 02:25:07;;;;;;;4.03;2.30;;;;;;;14.07;55.53;98037.53;5096338;28;20549;-68
2022/09/28 02:27:35;;;;;;;5.63;2.78;;;;;;;13.91;55.98;98027.38;5079351;28;20047;-68
2022/09/28 02:30:03;;;;;;;3.17;2.40;;;;;;;13.96;55.88;98019.53;5096611;28;20047;-68
2022/09/28 02:32:31;;;;;;;3.05;2.60;;;;;;;14.09;55.85;98022.09;5080199;28;20177;-69
2022/09/28 02:34:57;;;;;;;4.28;2.78;;;;;;;13.99;55.81;98019.09;5080256;28;20050;-68
2022/09/28 02:37:22;;;;;;;2.97;2.67;;;;;;;13.95;55.65;98013.38;5078798;28;20044;-68
2022/09/28 02:39:48;;;;;;;3.55;2.50;;;;;;;13.94;55.63;98005.59;5062668;28;20567;-67
2022/09/28 02:42:24;;;;;;;3.83;2.80;;;;;;;14.27;55.80;98022.16;5114539;28;20056;-67
2022/09/28 02:44:53;;;;;;;2.92;2.25;;;;;;;14.28;55.73;98023.78;5064228;28;20032;-66
2022/09/28 02:47:38;;;;;;;3.20;2.17;;;;;;;14.06;55.68;98012.66;5080103;28;20047;-67
2022/09/28 02:50:18;;;;;;;2.45;2.25;;;;;;;14.30;55.53;97995.03;5079652;28;20066;-68
2022/09/28 02:53:22;;;;;;;2.67;2.25;;;;;;;14.40;55.12;98011.34;5062523;28;20039;-71
2022/09/28 02:56:12;;;;;;;2.75;2.38;;;;;;;14.32;55.34;98008.94;5095613;28;20054;-69
2022/09/28 02:58:38;;;;;;;2.47;1.73;;;;;;;14.05;55.61;98008.38;5095943;28;20044;-69
2022/09/28 03:01:22;;;;;;;2.58;2.15;;;;;;;14.20;55.25;97984.00;5078639;28;20134;-69
2022/09/28 03:04:06;;;;;;;4.43;2.40;;;;;;;14.42;55.00;98003.94;5095521;28;20043;-69
2022/09/28 03:06:45;;;;;;;1.83;1.73;;;;;;;14.39;55.11;98005.16;5079220;28;20072;-69
2022/09/28 03:09:21;;;;;;;3.42;1.83;;;;;;;14.38;54.94;98000.06;5061888;28;20093;-69
2022/09/28 03:11:58;;;;;;;3.20;1.83;;;;;;;14.36;54.96;98000.28;5097144;28;20108;-69
2022/09/28 03:14:24;;;;;;;1.80;1.70;;;;;;;14.07;55.63;97994.81;5063481;28;20411;-69
2022/09/28 03:16:54;;;;;;;6.15;2.10;;;;;;;14.08;55.20;97996.44;5095216;28;20427;-70
2022/09/28 03:19:24;;;;;;;2.80;1.88;;;;;;;14.15;55.21;97971.31;5112896;28;20051;-69
2022/09/28 03:21:50;;;;;;;2.42;1.77;;;;;;;14.14;55.20;97998.22;5096127;28;20084;-69
2022/09/28 03:24:16;;;;;;;2.70;2.08;;;;;;;14.07;55.29;97981.47;5113921;28;20040;-69
2022/09/28 03:26:43;;;;;;;6.40;2.03;;;;;;;14.06;55.31;97987.81;5046994;28;20086;-69
2022/09/28 03:29:10;;;;;;;4.78;1.92;;;;;;;14.14;55.22;97995.56;5096917;28;20130;-69
2022/09/28 03:31:36;;;;;;;3.55;1.95;;;;;;;14.15;55.32;97994.50;5079223;28;20040;-69
2022/09/28 03:34:02;;;;;;;5.25;1.90;;;;;;;14.21;55.06;97989.09;5077814;28;20116;-70
2022/09/28 03:36:29;;;;;;;3.38;1.90;;;;;;;14.22;55.06;97990.72;5045077;28;20039;-69
2022/09/28 03:38:55;;;;;;;6.32;2.40;;;;;;;14.08;55.04;97959.88;5061136;28;20035;-69
2022/09/28 03:41:28;;;;;;;3.63;2.25;;;;;;;14.48;54.88;97982.50;5061139;28;20044;-70
2022/09/28 03:43:54;;;;;;;3.58;2.25;;;;;;;14.20;55.14;97978.66;5061482;28;20069;-68
2022/09/28 03:46:22;;;;;;;4.03;2.05;;;;;;;14.25;54.85;97976.16;5077585;28;20067;-69
2022/09/28 03:48:51;;;;;;;4.47;1.70;;;;;;;14.31;54.66;97967.28;5061227;28;20071;-69
2022/09/28 03:51:17;;;;;;;6.65;1.98;;;;;;;14.29;54.64;97966.66;5061012;28;20071;-69
2022/09/28 03:53:43;;;;;;;5.65;1.80;;;;;;;14.26;54.85;97962.59;5077785;28;20070;-70
2022/09/28 03:56:12;;;;;;;2.95;1.80;;;;;;;14.44;54.62;97953.75;5077773;28;20109;-68
2022/09/28 03:58:39;;;;;;;3.53;2.00;;;;;;;14.16;54.49;97930.22;5062313;28;20890;-69
2022/09/28 04:01:12;;;;;;;3.50;1.90;;;;;;;14.49;54.52;97953.91;5096303;28;20146;-70
2022/09/28 04:03:39;;;;;;;1.95;1.70;;;;;;;14.30;54.59;97954.97;5061639;28;20047;-71
2022/09/28 04:06:05;;;;;;;3.50;2.10;;;;;;;14.34;54.45;97954.31;5060102;28;20111;-70
2022/09/28 04:08:30;;;;;;;2.55;1.75;;;;;;;14.41;54.18;97954.19;5074448;28;20072;-70
2022/09/28 04:10:58;;;;;;;4.65;2.05;;;;;;;14.57;54.17;97943.75;5076986;28;20108;-69
2022/09/28 04:13:25;;;;;;;4.47;1.90;;;;;;;14.53;54.11;97939.88;5094212;28;20039;-73
2022/09/28 04:15:53;;;;;;;3.13;1.80;;;;;;;14.47;54.44;97951.47;5060972;28;20043;-72
2022/09/28 04:18:18;;;;;;;2.28;1.83;;;;;;;14.37;54.48;97945.03;5076718;28;20524;-69
2022/09/28 04:21:09;;;;;;;2.47;1.80;;;;;;;14.60;54.38;97943.31;5065026;28;20521;-71
2022/09/28 04:23:44;;;;;;;5.07;1.77;;;;;;;14.34;54.35;97924.09;5061259;28;20469;-71
2022/09/28 04:26:18;;;;;;;2.10;1.80;;;;;;;14.60;54.03;97937.13;5058258;28;20036;-69
2022/09/28 04:31:35;;;;;;;2.25;1.70;;;;;;;14.52;54.00;97932.09;5079820;28;20047;-69
2022/09/28 04:34:01;;;;;;;5.72;2.00;;;;;;;14.54;54.12;97938.03;5078184;28;20035;-68
2022/09/28 04:36:27;;;;;;;3.03;1.70;;;;;;;14.55;54.15;97937.00;5077125;28;20058;-70
2022/09/28 04:38:53;;;;;;;4.10;1.95;;;;;;;14.61;53.91;97926.22;5074949;28;20847;-70
2022/09/28 04:41:21;;;;;;;4.78;1.88;;;;;;;14.66;53.96;97930.88;5061054;28;20047;-72
2022/09/28 04:43:48;;;;;;;3.50;1.90;;;;;;;14.66;53.89;97939.72;5058298;28;20355;-70
2022/09/28 04:46:15;;;;;;;3.38;1.92;;;;;;;14.74;53.67;97938.59;5067368;28;20046;-72
2022/09/28 04:48:47;;;;;;;2.42;1.80;;;;;;;14.76;53.66;97931.97;5060285;28;20031;-71
2022/09/28 04:51:31;;;;;;;3.53;1.70;;;;;;;15.05;53.31;97935.72;5079936;28;20047;-70
2022/09/28 04:53:57;;;;;;;3.53;2.00;;;;;;;14.73;53.54;97900.38;5040637;28;20073;-70
2022/09/28 04:56:24;;;;;;;3.63;2.10;;;;;;;14.89;53.36;97934.50;5076640;28;20051;-70
2022/09/28 04:58:49;;;;;;;6.13;2.10;;;;;;;14.88;53.37;97918.69;5059158;28;20181;-71
2022/09/28 05:01:17;;;;;;;6.40;2.15;;;;;;;15.04;53.49;97918.03;5081188;28;20044;-69
2022/09/28 05:04:12;;;;;;;4.95;2.30;;;;;;;14.93;53.31;97918.78;5011418;28;20155;-69
2022/09/28 05:07:04;;;;;;;4.38;2.10;;;;;;;14.99;53.01;97912.56;5065080;28;20039;-73
2022/09/28 05:09:31;;;;;;;5.95;2.42;;;;;;;15.02;53.00;97918.25;5083599;28;20058;-69
2022/09/28 05:11:56;;;;;;;3.40;2.10;;;;;;;15.04;52.92;97901.97;5097370;28;20031;-69
2022/09/28 05:14:24;;;;;;;4.03;2.75;;;;;;;15.10;52.68;97906.41;5064180;28;20051;-70
2022/09/28 05:16:51;;;;;;;2.67;1.92;;;;;;;15.02;52.69;97886.16;5063828;28;20043;-69
2022/09/28 05:19:37;;;;;;;4.57;2.50;;;;;;;15.15;52.61;97907.38;5098272;28;20051;-72
2022/09/28 05:22:03;;;;;;;4.88;2.70;;;;;;;15.12;52.89;97910.50;5065471;28;20051;-74
2022/09/28 05:24:36;;;;;;;4.03;2.55;;;;;;;15.08;52.44;97898.63;5098396;28;20476;-74
2022/09/28 05:27:01;;;;;;;3.25;2.72;;;;;;;15.21;52.45;97902.97;5083347;28;20040;-73
2022/09/28 05:29:29;;;;;;;4.05;3.17;;;;;;;15.20;52.50;97914.72;5082828;28;20047;-73
2022/09/28 05:32:15;;;;;;;5.05;3.30;;;;;;;15.24;52.50;97908.69;5071399;28;20064;-74
2022/09/28 05:35:00;;;;;;;4.28;3.20;;;;;;;15.21;52.32;97900.28;5100507;28;20035;-73
2022/09/28 05:37:31;;;;;;;6.25;3.42;;;;;;;15.27;52.39;97900.19;5084257;28;20055;-75
2022/09/28 05:39:56;;;;;;;4.70;3.20;;;;;;;15.35;52.11;97899.03;5100252;28;20039;-74
2022/09/28 05:42:24;;;;;;;4.65;3.30;;;;;;;15.44;51.96;97897.69;5083867;28;20039;-74
2022/09/28 05:44:50;;;;;;;4.53;3.70;;;;;;;15.41;51.80;97903.50;5066528;28;20083;-74
2022/09/28 05:47:25;;;;;;;5.43;3.40;;;;;;;15.60;51.97;97891.66;5082749;28;20421;-74
2022/09/28 05:49:52;;;;;;;4.25;3.40;;;;;;;15.56;51.87;97892.38;5065415;28;20055;-77
2022/09/28 05:52:18;;;;;;;7.57;3.78;;;;;;;15.64;51.82;97886.63;5065654;28;20069;-73
2022/09/28 05:54:44;;;;;;;5.60;3.90;;;;;;;15.61;51.67;97882.59;5049008;28;20097;-74
2022/09/28 05:57:10;;;;;;;6.95;4.10;;;;;;;15.69;51.86;97892.94;5083314;28;20143;-74
2022/09/28 05:59:36;;;;;;;6.13;3.80;;;;;;;15.68;51.64;97880.63;5082089;28;20061;-75
2022/09/28 06:02:03;;;;;;;6.63;4.20;;;;;;;15.70;51.36;97862.44;5049451;28;20408;-70
2022/09/28 06:04:29;;;;;;;4.03;3.63;;;;;;;15.79;51.39;97874.44;5049316;28;20043;-74
2022/09/28 06:06:55;;;;;;;6.65;3.80;;;;;;;15.96;50.79;97883.38;5048652;28;20143;-73
2022/09/28 06:09:24;;;;;;;6.65;3.67;;;;;;;15.97;51.15;97882.34;5081904;28;20043;-73
2022/09/28 06:11:53;;;;;;;10.50;4.05;;;;;;;15.93;51.05;97881.16;5082238;28;20050;-72
2022/09/28 06:14:41;;;;;;;7.13;3.80;;;;;;;15.85;50.77;97859.31;5053346;28;20036;-73
2022/09/28 06:17:07;;;;;;;5.65;3.75;;;;;;;16.10;50.73;97892.78;5047683;28;20044;-73
2022/09/28 06:19:33;;;;;;;7.13;4.13;;;;;;;16.08;50.50;97886.84;5065052;28;20115;-74
2022/09/28 06:22:17;;;;;;;6.93;3.63;;;;;;;16.14;50.48;97893.16;5084765;28;20043;-74
2022/09/28 06:24:59;;;;;;;7.10;3.70;;;;;;;16.15;50.60;97887.56;5048557;28;20420;-77
2022/09/28 06:27:26;;;;;;;4.22;3.40;;;;;;;16.19;50.25;97895.94;5065365;28;20076;-74
2022/09/28 06:29:52;;;;;;;7.10;4.53;;;;;;;16.18;50.26;97886.25;5097409;28;20055;-75
2022/09/28 06:32:18;;;;;;;5.50;4.03;;;;;;;16.23;50.23;97900.59;5064944;28;20112;-74
2022/09/28 06:34:47;;;;;;;8.02;4.07;;;;;;;16.22;50.34;97903.50;5115519;28;20140;-75
2022/09/28 06:37:13;;;;;;;5.40;4.22;;;;;;;16.27;50.18;97903.59;5049056;28;20469;-72
2022/09/28 06:39:39;;;;;;;4.85;3.90;;;;;;;16.31;50.26;97894.06;5064798;28;20518;-74
2022/09/28 06:42:05;;;;;;;7.30;4.00;;;;;;;16.31;49.97;97896.72;5064130;28;20035;-74
2022/09/28 06:44:58;;;;;;;4.72;3.50;;;;;;;16.25;50.05;97879.72;5063464;28;20054;-75
2022/09/28 06:47:47;;;;;;;5.97;3.45;;;;;;;16.45;49.87;97895.44;5054201;28;20051;-72
2022/09/28 06:50:20;;;;;;;5.15;4.00;;;;;;;16.49;49.84;97896.59;5081981;28;20055;-73
2022/09/28 06:53:11;;;;;;;6.63;3.97;;;;;;;16.66;49.42;97898.28;5080227;28;20055;-74
2022/09/28 06:55:59;;;;;;;5.50;3.55;;;;;;;16.62;49.43;97897.13;5052413;28;20462;-74
2022/09/28 06:58:27;;;;;;;5.28;3.60;;;;;;;16.67;48.99;97897.22;5081979;28;20043;-74
2022/09/28 07:00:58;;;;;;;7.00;3.25;;;;;;;16.78;49.11;97893.69;5047234;28;20074;-70
2022/09/28 07:03:28;;;;;;;5.32;3.88;;;;;;;16.93;48.83;97890.47;5080142;28;20043;-72
2022/09/28 07:06:17;;;;;;;7.75;3.92;;;;;;;16.81;48.97;97876.31;5049112;28;20493;-72
2022/09/28 07:09:06;;;;;;;5.20;3.20;;;;;;;16.94;48.34;97888.59;5054795;28;20054;-73
2022/09/28 07:11:53;;;;;;;6.97;3.30;;;;;;;17.02;48.54;97880.97;5058853;28;20059;-72
2022/09/28 07:14:42;;;;;;;5.90;2.80;;;;;;;16.93;48.50;97860.19;5079770;28;20135;-73
2022/09/28 07:17:08;;;;;;;5.63;3.20;;;;;;;17.08;48.28;97876.53;5062226;28;20471;-72
2022/09/28 07:19:35;;;;;;;5.03;3.22;;;;;;;17.09;48.12;97878.16;5078911;28;20141;-71
2022/09/28 07:22:00;;;;;;;5.95;3.22;;;;;;;17.11;48.17;97889.47;5062664;28;20050;-72
2022/09/28 07:24:28;;;;;;;6.57;3.35;;;;;;;17.05;48.48;97896.63;5046845;28;20039;-71
2022/09/28 07:27:33;;;;;;;9.48;3.38;;;;;;;17.10;48.46;97885.16;5012739;28;20049;-71
2022/09/28 07:30:34;;;;;;;4.75;3.42;;;;;;;17.15;48.33;97887.91;4953567;29;20047;-71
2022/09/28 07:33:14;;;;;;;4.93;3.42;;;;;;;17.19;48.28;97871.09;5037415;28;20054;-72
2022/09/28 07:36:05;;;;;;;7.95;3.22;;;;;;;17.18;48.06;97892.78;5074390;28;20063;-71
2022/09/28 07:38:32;;;;;;;8.23;6.00;;;;;;;17.30;48.12;97885.50;5042659;28;20063;-73
2022/09/28 07:41:10;;;;;;;4.40;3.42;;;;;;;17.20;48.13;97882.63;5025126;28;20079;-72
2022/09/28 07:43:40;;;;;;;8.02;3.33;;;;;;;17.22;48.15;97869.81;5044764;28;20371;-71
2022/09/28 07:46:10;;;;;;;6.15;3.65;;;;;;;17.27;48.10;97883.28;5042125;28;20470;-73
2022/09/28 07:48:41;;;;;;;5.97;3.38;;;;;;;17.30;48.37;97888.19;5042803;28;20040;-72
2022/09/28 07:51:22;;;;;;;6.05;3.58;;;;;;;17.16;48.22;97897.59;5063861;28;20039;-71
2022/09/28 07:54:06;;;;;;;5.22;3.38;;;;;;;17.13;48.49;97888.16;5062357;28;20112;-71
2022/09/28 07:56:34;;;;;;;7.47;3.90;;;;;;;17.19;48.30;97889.06;5060100;28;20124;-72
2022/09/28 07:59:05;;;;;;;6.28;3.70;;;;;;;17.26;47.81;97887.03;5058771;28;20059;-71
2022/09/28 08:01:49;;;;;;;10.38;4.25;;;;;;;17.28;48.09;97882.25;5060936;28;20040;-71
2022/09/28 08:04:16;;;;;;;7.53;3.72;;;;;;;17.13;47.90;97858.63;5057995;28;20472;-71
2022/09/28 08:06:44;;;;;;;7.03;4.35;;;;;;;17.32;47.84;97886.06;5043919;28;20107;-72
2022/09/28 08:09:11;;;;;;;6.70;4.22;;;;;;;17.23;47.76;97858.00;5044772;28;20043;-73
2022/09/28 08:12:17;;;;;;;9.00;4.15;;;;;;;17.34;47.68;97882.09;5039900;28;20143;-70
2022/09/28 08:15:14;;;;;;;6.20;4.38;;;;;;;17.35;47.87;97874.84;5011039;28;20499;-71
2022/09/28 08:17:48;;;;;;;8.90;4.53;;;;;;;17.47;47.46;97878.28;5059444;28;20465;-73
2022/09/28 08:23:03;;;;;;;10.68;4.53;;;;;;;17.67;47.10;97871.38;5061786;28;20052;-71
2022/09/28 08:25:30;;;;;;;8.10;4.40;;;;;;;17.59;47.32;97870.97;5045380;28;20046;-72
2022/09/28 08:27:56;;;;;;;8.88;4.90;;;;;;;17.53;47.06;97872.75;5060399;28;20056;-73
2022/09/28 08:30:22;;;;;;;9.35;4.75;;;;;;;17.59;47.18;97876.34;5044075;28;20047;-73
2022/09/28 08:33:07;;;;;;;6.18;4.88;;;;;;;17.58;47.44;97877.38;5078359;28;20035;-71
2022/09/28 08:36:00;;;;;;;7.22;4.85;;;;;;;17.76;47.43;97880.63;5057145;28;20333;-71
2022/09/28 08:38:55;;;;;;;8.65;5.03;;;;;;;17.66;47.45;97883.19;5086219;28;20042;-70
2022/09/28 08:41:35;;;;;;;7.43;5.35;;;;;;;17.94;46.71;97874.97;5066026;28;20039;-76
2022/09/28 08:44:24;;;;;;;8.05;4.75;;;;;;;18.03;46.63;97867.31;5085936;28;20480;-71
2022/09/28 08:48:42;;;;;;;9.15;5.50;;;;;;;18.03;46.39;97848.50;5102519;28;20038;-71
2022/09/28 08:50:49;;;;;;;6.35;4.88;;;;;;;18.11;46.36;97848.88;5050880;28;20068;-71
2022/09/28 08:53:31;;;;;;;9.20;4.97;;;;;;;17.94;46.22;97863.44;5061328;28;20105;-71
2022/09/28 08:56:20;;;;;;;8.52;4.68;;;;;;;18.33;45.78;97865.00;5049763;28;20140;-70
2022/09/28 08:58:51;;;;;;;9.57;4.80;;;;;;;18.36;45.71;97869.88;5047098;28;20496;-70
2022/09/28 09:01:17;;;;;;;;;;;;;;;18.55;45.24;97875.78;5062534;28;20048;-71
2022/09/28 09:03:44;;;;;;;6.43;4.90;;;;;;;18.36;45.76;97864.50;5030102;28;19928;-71
2022/09/28 09:06:49;;;;;;;9.10;5.15;;;;;;;18.54;45.37;97871.50;5053170;28;20067;-71
2022/09/28 09:09:52;;;;;;;7.55;5.82;;;;;;;18.63;45.20;97878.88;5063958;28;20051;-71
2022/09/28 09:12:33;;;;;;;;;;;;;;;18.66;45.28;97881.06;5061421;28;20036;-71
2022/09/28 09:15:27;;;;;;;10.88;8.52;;;;;;;18.68;45.11;97881.63;5078007;28;20276;-72
2022/09/28 09:17:55;;;;;;;10.20;7.07;;;;;;;18.42;45.34;97877.81;5079235;28;20062;-72
2022/09/28 09:20:57;;;;;;;9.13;6.28;;;;;;;18.42;45.12;97888.56;5056554;28;20156;-72
2022/09/28 09:23:34;;;;;;;12.63;6.25;;;;;;;18.65;44.88;97890.16;5062247;28;20066;-73
2022/09/28 09:26:16;;;;;;;12.77;6.43;;;;;;;18.67;44.40;97898.81;5062564;28;20047;-73
2022/09/28 09:28:50;;;;;;;8.20;6.68;;;;;;;18.49;44.88;97899.13;5028866;28;20069;-78
2022/09/28 09:31:37;;;;;;;12.93;6.80;;;;;;;18.32;45.25;97899.16;5077152;28;20052;-73
2022/09/28 09:34:19;;;;;;;7.78;6.28;;;;;;;18.40;45.61;97900.63;5061638;28;20529;-73
2022/09/28 09:37:15;;;;;;;12.25;7.57;;;;;;;18.37;45.48;97890.34;5062822;28;20047;-73
2022/09/28 09:40:17;;;;;;;11.55;7.90;;;;;;;18.41;45.64;97889.63;5078652;28;20051;-74
2022/09/28 09:43:24;;;;;;;8.90;6.93;;;;;;;18.36;45.46;97894.91;5063015;28;20047;-72
2022/09/28 09:46:23;;;;;;;11.57;6.95;;;;;;;18.28;45.29;97898.00;5062885;28;20052;-73
2022/09/28 09:49:19;;;;;;;11.13;6.47;;;;;;;18.27;45.53;97896.41;5045883;28;20052;-74
2022/09/28 09:51:58;;;;;;;9.93;6.88;;;;;;;18.36;45.34;97896.75;5076805;28;20047;-73
2022/09/28 09:54:39;;;;;;;8.57;6.50;;;;;;;18.31;45.32;97892.13;5060234;28;20105;-73
2022/09/28 09:57:19;;;;;;;9.73;6.90;;;;;;;18.30;45.70;97900.44;5061290;28;20044;-73
2022/09/28 10:00:04;;;;;;;8.23;6.40;;;;;;;18.22;45.59;97901.69;5060405;28;20043;-73
2022/09/28 10:02:59;;;;;;;9.85;6.88;;;;;;;18.06;46.01;97893.69;5064167;28;20039;-72
2022/09/28 10:05:38;;;;;;;9.27;6.85;;;;;;;18.06;45.49;97901.75;5062336;28;20044;-73
2022/09/28 10:08:14;;;;;;;11.25;6.50;;;;;;;18.23;45.65;97903.34;5059915;28;20048;-74
2022/09/28 10:10:49;;;;;;;11.30;6.53;;;;;;;18.06;45.74;97874.88;5027782;28;20454;-74
2022/09/28 10:13:18;;;;;;;11.52;6.93;;;;;;;17.98;46.13;97894.94;5046997;28;20035;-75
2022/09/28 10:15:46;;;;;;;14.95;6.93;;;;;;;17.88;46.06;97885.91;5081179;28;20130;-74
2022/09/28 10:18:34;;;;;;;11.50;6.95;;;;;;;17.97;46.25;97884.44;5099210;28;20055;-73
2022/09/28 10:21:20;;;;;;;13.93;7.05;;;;;;;18.02;46.21;97885.31;5068857;28;20058;-72
2022/09/28 10:24:02;;;;;;;8.70;6.43;;;;;;;18.03;45.88;97868.16;5042652;28;20043;-74
2022/09/28 10:26:34;;;;;;;14.30;7.15;;;;;;;18.21;46.05;97891.19;5113563;28;20036;-72
2022/09/28 10:29:05;;;;;;;12.55;7.68;;;;;;;18.23;45.96;97891.78;5068818;28;20047;-74
2022/09/28 10:31:40;;;;;;;16.02;7.28;;;;;;;18.35;45.59;97887.91;5063134;28;20039;-72
2022/09/28 10:34:15;;;;;;;11.35;6.82;;;;;;;18.38;45.68;97882.06;5077605;28;20466;-73
2022/09/28 10:37:02;;;;;;;10.00;6.73;;;;;;;18.51;45.09;97888.13;5056483;28;20047;-74
2022/09/28 10:39:55;;;;;;;12.60;7.25;;;;;;;18.42;45.37;97879.66;5066262;28;20049;-73
2022/09/28 10:42:28;;;;;;;13.00;6.07;;;;;;;18.42;45.20;97887.72;5078401;28;20057;-73
2022/09/28 10:45:18;;;;;;;12.68;5.28;;;;;;;18.48;45.62;97880.56;5095886;28;20074;-73
2022/09/28 10:47:45;;;;;;;10.30;4.95;;;;;;;18.23;45.73;97889.09;5080236;28;20047;-76
2022/09/28 10:50:22;;;;;;;7.35;5.10;;;;;;;18.20;46.13;97887.69;5047039;28;20043;-76
2022/09/28 10:52:53;;;;;;;8.63;5.18;;;;;;;17.91;46.41;97882.72;5079616;28;20112;-73
2022/09/28 10:55:56;;;;;;;9.25;5.57;;;;;;;18.13;46.31;97884.38;5069447;28;20545;-73
2022/09/28 10:58:28;;;;;;;13.00;5.32;;;;;;;18.10;46.38;97881.38;5078499;28;20104;-74
2022/09/28 11:01:08;;;;;;;9.85;5.15;;;;;;;18.22;46.33;97887.47;5078653;28;20039;-74
2022/09/28 11:03:46;;;;;;;8.98;5.18;;;;;;;17.93;46.51;97856.41;5079040;28;20053;-71
2022/09/28 11:06:12;;;;;;;10.90;5.00;;;;;;;17.93;46.44;97885.97;5078999;28;20070;-70
2022/09/28 11:08:41;;;;;;;17.80;5.20;;;;;;;18.17;46.49;97890.88;5095889;28;20134;-72
2022/09/28 11:11:12;;;;;;;10.25;5.40;;;;;;;18.07;46.42;97890.75;5080655;28;20043;-71
2022/09/28 11:13:43;;;;;;;14.18;6.22;;;;;;;17.97;47.06;97887.94;5063815;28;20039;-72
2022/09/28 11:16:25;;;;;;;17.80;5.97;;;;;;;18.04;46.65;97893.94;5097415;28;20055;-70
2022/09/28 11:18:53;;;;;;;10.38;5.80;;;;;;;17.81;47.21;97899.50;5046985;28;20039;-70
2022/09/28 11:21:31;;;;;;;8.68;6.13;;;;;;;18.05;47.00;97900.91;5063260;28;20051;-73
2022/09/28 11:24:24;;;;;;;18.70;6.00;;;;;;;18.05;46.27;97902.81;5080699;28;20046;-72
2022/09/28 11:26:58;;;;;;;8.38;5.47;;;;;;;17.98;46.62;97911.03;5079956;28;20071;-71
2022/09/28 11:29:40;;;;;;;10.60;6.15;;;;;;;18.03;46.58;97908.44;5079982;28;20043;-70
2022/09/28 11:32:31;;;;;;;13.88;5.90;;;;;;;17.95;46.75;97906.16;5081344;28;20488;-71
2022/09/28 11:35:30;;;;;;;11.07;6.32;;;;;;;17.96;46.77;97909.66;5016635;28;20057;-70
2022/09/28 11:38:10;;;;;;;11.45;6.10;;;;;;;17.95;46.58;97905.34;5062118;28;20055;-70
2022/09/28 11:41:09;;;;;;;9.02;5.75;;;;;;;18.02;46.48;97914.84;5096546;28;20036;-71
2022/09/28 11:44:16;;;;;;;7.38;5.40;;;;;;;18.05;46.65;97911.66;5080170;28;20104;-71
2022/09/28 11:46:57;;;;;;;8.90;5.88;;;;;;;17.99;46.38;97903.81;5042055;28;20071;-71
2022/09/28 11:49:34;;;;;;;10.63;6.00;;;;;;;18.01;46.67;97917.78;5098124;28;20044;-70
2022/09/28 11:52:06;;;;;;;10.20;6.28;;;;;;;17.86;46.50;97920.25;5080912;28;20473;-71
2022/09/28 11:54:47;;;;;;;8.95;5.85;;;;;;;17.82;46.67;97905.69;5077482;28;20085;-71
2022/09/28 11:57:21;;;;;;;12.15;5.57;;;;;;;17.76;46.85;97904.00;5059649;28;20533;-71
2022/09/28 12:00:05;;;;;;;9.32;5.40;;;;;;;17.74;47.01;97909.63;5087483;28;20043;-71
2022/09/28 12:03:08;;;;;;;9.23;4.95;;;;;;;17.59;47.10;97905.88;5094254;28;20137;-71
2022/09/28 12:05:39;;;;;;;7.68;4.53;;;;;;;17.41;47.32;97898.00;5056725;28;20093;-72
2022/09/28 12:08:13;;;;;;;8.88;4.40;;;;;;;17.53;47.47;97914.91;5077238;28;20048;-71
2022/09/28 12:11:08;;;;;;;5.35;4.20;;;;;;;17.57;47.43;97914.19;5079114;28;20051;-71
2022/09/28 12:14:05;;;;;;;6.47;4.60;;;;;;;17.49;47.50;97925.31;5054575;28;20120;-73
2022/09/28 12:16:36;;;;;;;11.65;4.85;;;;;;;17.45;47.47;97912.63;5094093;28;20043;-72
2022/09/28 12:19:09;;;;;;;7.63;4.38;;;;;;;17.55;47.37;97915.44;5071437;28;20043;-72